createdAt,value
2023-03-05T00:01:33.898Z,9.90
2023-03-05T00:04:06.077Z,13.00
2023-03-05T00:06:35.238Z,10.50
2023-03-05T00:09:04.460Z,11.70
2023-03-05T00:11:33.781Z,5.95
2023-03-05T00:14:04.701Z,9.85
2023-03-05T00:16:33.689Z,7.57
2023-03-05T00:19:03.229Z,10.88
2023-03-05T00:21:34.558Z,7.57
2023-03-05T00:24:05.434Z,13.57
2023-03-05T00:26:36.659Z,11.75
2023-03-05T00:29:06.214Z,12.15
2023-03-05T00:31:37.222Z,7.70
2023-03-05T00:34:10.283Z,8.98
2023-03-05T00:36:42.040Z,7.85
2023-03-05T00:39:10.422Z,11.68
2023-03-05T00:41:38.961Z,7.75
2023-03-05T00:44:07.796Z,7.75
2023-03-05T00:46:36.242Z,11.27
2023-03-05T00:49:06.055Z,6.80
2023-03-05T00:51:34.974Z,12.52
2023-03-05T00:54:03.189Z,9.10
2023-03-05T00:56:31.385Z,8.85
2023-03-05T00:58:59.465Z,12.05
2023-03-05T01:01:28.501Z,10.23
2023-03-05T01:03:58.274Z,15.43
2023-03-05T01:06:29.407Z,14.60
2023-03-05T01:08:59.197Z,9.02
2023-03-05T01:11:27.334Z,12.55
2023-03-05T01:13:55.468Z,11.07
2023-03-05T01:16:23.715Z,12.48
2023-03-05T01:18:51.882Z,9.00
2023-03-05T01:21:20.258Z,12.85
2023-03-05T01:23:49.830Z,18.70
2023-03-05T01:26:18.027Z,13.32
2023-03-05T01:28:46.229Z,10.77
2023-03-05T01:31:14.733Z,10.77
2023-03-05T01:33:42.832Z,12.75
2023-03-05T01:36:17.027Z,10.95
2023-03-05T01:38:46.861Z,14.30
2023-03-05T01:41:19.113Z,13.38
2023-03-05T01:43:49.024Z,14.20
2023-03-05T01:46:28.662Z,14.43
2023-03-05T01:49:06.202Z,13.50
2023-03-05T01:51:41.459Z,17.65
2023-03-05T01:54:13.032Z,15.38
2023-03-05T01:56:45.023Z,17.52
2023-03-05T01:59:15.465Z,16.58
2023-03-05T02:01:49.208Z,15.20
2023-03-05T02:04:20.518Z,14.43
2023-03-05T02:06:49.914Z,18.60
2023-03-05T02:09:18.209Z,16.27
2023-03-05T02:11:47.966Z,17.73
2023-03-05T02:14:16.214Z,13.10
2023-03-05T02:16:44.693Z,13.43
2023-03-05T02:19:14.095Z,12.27
2023-03-05T02:21:47.478Z,10.80
2023-03-05T02:24:19.162Z,14.13
2023-03-05T02:26:48.769Z,17.38
2023-03-05T02:29:21.110Z,15.30
2023-03-05T02:31:49.367Z,18.55
2023-03-05T02:34:17.558Z,16.90
2023-03-05T02:36:46.953Z,18.65
2023-03-05T02:39:15.229Z,17.60
2023-03-05T02:41:44.738Z,15.02
2023-03-05T02:44:12.965Z,18.13
2023-03-05T02:46:41.099Z,18.02
2023-03-05T02:49:09.278Z,19.38
2023-03-05T02:51:37.388Z,14.20
2023-03-05T02:54:07.066Z,17.67
2023-03-05T02:56:35.173Z,18.75
2023-03-05T02:59:03.255Z,17.48
2023-03-05T03:01:31.629Z,20.45
2023-03-05T03:03:59.914Z,21.27
2023-03-05T03:06:28.157Z,20.85
2023-03-05T03:08:56.188Z,18.30
2023-03-05T03:11:25.721Z,22.42
2023-03-05T03:13:53.764Z,20.27
2023-03-05T03:16:22.277Z,18.08
2023-03-05T03:18:50.749Z,20.38
2023-03-05T03:21:21.237Z,22.10
2023-03-05T03:23:49.466Z,14.90
2023-03-05T03:26:18.132Z,19.33
2023-03-05T03:28:47.785Z,24.35
2023-03-05T03:31:16.681Z,21.65
2023-03-05T03:33:45.335Z,17.05
2023-03-05T03:36:14.250Z,26.08
2023-03-05T03:38:42.562Z,22.00
2023-03-05T03:41:10.860Z,24.67
2023-03-05T03:43:40.021Z,20.48
2023-03-05T03:46:09.717Z,22.83
2023-03-05T03:48:38.153Z,25.38
2023-03-05T03:51:08.645Z,24.83
2023-03-05T03:53:36.953Z,23.52
2023-03-05T03:56:06.000Z,24.60
2023-03-05T03:58:34.183Z,23.40
2023-03-05T04:01:02.273Z,22.00
2023-03-05T04:03:31.844Z,23.08
2023-03-05T04:06:00.004Z,23.45
2023-03-05T04:08:28.243Z,25.98
2023-03-05T04:10:56.461Z,20.25
2023-03-05T04:13:24.546Z,24.58
2023-03-05T04:15:52.742Z,18.38
2023-03-05T04:18:20.897Z,15.27
2023-03-05T04:20:50.689Z,15.65
2023-03-05T04:23:19.255Z,22.90
2023-03-05T04:25:47.492Z,19.55
2023-03-05T04:28:15.620Z,17.48
2023-03-05T04:30:43.734Z,31.95
2023-03-05T04:33:11.837Z,22.52
2023-03-05T04:35:39.973Z,25.45
2023-03-05T04:38:09.951Z,24.60
2023-03-05T04:40:38.571Z,28.20
2023-03-05T04:43:07.692Z,22.27
2023-03-05T04:45:35.942Z,22.10
2023-03-05T04:48:04.065Z,19.98
2023-03-05T04:50:32.237Z,23.60
2023-03-05T04:53:00.731Z,20.90
2023-03-05T04:55:30.336Z,22.63
2023-03-05T04:57:59.229Z,21.60
2023-03-05T05:00:27.476Z,25.02
2023-03-05T05:02:55.914Z,19.52
2023-03-05T05:05:26.870Z,22.58
2023-03-05T05:07:57.239Z,20.23
2023-03-05T05:10:31.599Z,19.25
2023-03-05T05:13:00.216Z,20.95
2023-03-05T05:15:28.477Z,20.00
2023-03-05T05:17:56.831Z,22.17
2023-03-05T05:20:25.227Z,21.40
2023-03-05T05:22:53.607Z,23.50
2023-03-05T05:25:21.931Z,25.30
2023-03-05T05:27:54.133Z,26.27
2023-03-05T05:30:22.427Z,28.67
2023-03-05T05:32:50.606Z,30.70
2023-03-05T05:35:19.141Z,19.85
2023-03-05T05:37:47.330Z,18.65
2023-03-05T05:40:16.293Z,22.50
2023-03-05T05:42:45.018Z,19.60
2023-03-05T05:45:14.831Z,23.38
2023-03-05T05:47:42.938Z,23.05
2023-03-05T05:50:13.270Z,22.83
2023-03-05T05:52:41.577Z,22.33
2023-03-05T05:55:11.484Z,21.52
2023-03-05T05:57:39.704Z,22.63
2023-03-05T06:00:12.586Z,18.48
2023-03-05T06:02:45.131Z,24.40
2023-03-05T06:05:15.935Z,18.10
2023-03-05T06:07:44.196Z,22.63
2023-03-05T06:10:13.558Z,19.08
2023-03-05T06:12:41.905Z,21.92
2023-03-05T06:15:11.188Z,18.73
2023-03-05T06:17:40.920Z,23.25
2023-03-05T06:20:10.952Z,20.30
2023-03-05T06:22:40.112Z,24.25
2023-03-05T06:25:11.055Z,23.48
2023-03-05T06:27:39.787Z,22.48
2023-03-05T06:30:10.823Z,27.45
2023-03-05T06:32:39.267Z,28.60
2023-03-05T06:35:10.260Z,26.38
2023-03-05T06:37:38.436Z,19.50
2023-03-05T06:40:08.929Z,24.48
2023-03-05T06:42:37.287Z,20.67
2023-03-05T06:45:06.996Z,26.38
2023-03-05T06:47:35.216Z,23.88
2023-03-05T06:50:03.610Z,25.02
2023-03-05T06:52:33.076Z,16.55
2023-03-05T06:55:01.202Z,20.45
2023-03-05T06:57:29.353Z,17.90
2023-03-05T06:59:57.813Z,22.05
2023-03-05T07:02:26.193Z,18.60
2023-03-05T07:04:54.316Z,18.15
2023-03-05T07:07:22.484Z,21.25
2023-03-05T07:09:53.657Z,17.60
2023-03-05T07:12:21.903Z,20.40
2023-03-05T07:14:50.060Z,21.48
2023-03-05T07:17:19.309Z,17.17
2023-03-05T07:19:47.462Z,19.23
2023-03-05T07:22:16.297Z,17.38
2023-03-05T07:24:44.357Z,20.20
2023-03-05T07:27:13.910Z,16.95
2023-03-05T07:29:41.970Z,21.98
2023-03-05T07:32:10.858Z,17.92
2023-03-05T07:34:39.296Z,17.60
2023-03-05T07:37:07.715Z,16.20
2023-03-05T07:39:35.839Z,19.52
2023-03-05T07:42:04.536Z,15.55
2023-03-05T07:44:34.060Z,18.33
2023-03-05T07:47:02.192Z,19.35
2023-03-05T07:49:30.377Z,27.95
2023-03-05T07:51:58.733Z,19.58
2023-03-05T07:54:26.857Z,20.98
2023-03-05T07:56:56.376Z,21.17
2023-03-05T07:59:24.513Z,22.23
2023-03-05T08:01:54.355Z,17.13
2023-03-05T08:04:22.615Z,19.15
2023-03-05T08:06:51.028Z,18.67
2023-03-05T08:09:19.882Z,24.70
2023-03-05T08:11:47.982Z,18.55
2023-03-05T08:14:16.713Z,21.00
2023-03-05T08:16:47.257Z,20.48
2023-03-05T08:19:17.794Z,17.58
2023-03-05T08:21:47.286Z,27.25
2023-03-05T08:24:16.148Z,19.13
2023-03-05T08:26:44.460Z,24.25
2023-03-05T08:29:12.937Z,23.98
2023-03-05T08:31:41.384Z,21.02
2023-03-05T08:34:09.619Z,18.83
2023-03-05T08:36:39.048Z,21.25
2023-03-05T08:39:08.588Z,17.85
2023-03-05T08:41:37.031Z,17.20
2023-03-05T08:44:05.794Z,19.90
2023-03-05T08:46:34.699Z,20.75
2023-03-05T08:49:03.101Z,25.40
2023-03-05T08:51:31.298Z,16.70
2023-03-05T08:54:01.872Z,22.75
2023-03-05T08:56:31.503Z,25.92
2023-03-05T08:58:59.872Z,18.58
2023-03-05T09:01:28.207Z,15.60
2023-03-05T09:03:56.620Z,20.50
2023-03-05T09:06:24.934Z,18.63
2023-03-05T09:08:53.470Z,20.77
2023-03-05T09:11:23.400Z,22.50
2023-03-05T09:13:51.602Z,22.48
2023-03-05T09:16:21.125Z,16.77
2023-03-05T09:18:49.418Z,22.90
2023-03-05T09:21:19.477Z,12.45
2023-03-05T09:23:48.191Z,16.20
2023-03-05T09:26:19.309Z,19.95
2023-03-05T09:28:49.778Z,12.23
2023-03-05T09:31:18.792Z,9.48
2023-03-05T09:33:48.530Z,5.38
2023-03-05T09:36:21.671Z,8.70
2023-03-05T09:38:50.365Z,11.30
2023-03-05T09:41:31.015Z,12.32
2023-03-05T09:44:19.260Z,15.35
2023-03-05T09:46:55.828Z,5.78
2023-03-05T09:49:48.222Z,5.65
2023-03-05T09:52:31.506Z,6.80
2023-03-05T09:54:59.963Z,7.93
2023-03-05T09:57:40.439Z,4.15
2023-03-05T10:00:39.639Z,6.90
2023-03-05T10:03:17.161Z,5.30
2023-03-05T10:05:57.443Z,8.45
2023-03-05T10:08:39.250Z,4.85
2023-03-05T10:11:20.154Z,7.78
2023-03-05T10:13:48.731Z,4.35
2023-03-05T10:16:50.661Z,5.95
2023-03-05T10:19:46.731Z,8.20
2023-03-05T10:22:22.728Z,6.15
2023-03-05T10:25:19.341Z,4.30
2023-03-05T10:27:54.063Z,4.88
2023-03-05T10:30:41.447Z,12.70
2023-03-05T10:33:29.705Z,4.90
2023-03-05T10:36:35.470Z,4.30
2023-03-05T10:40:00.197Z,5.10
2023-03-05T10:42:42.545Z,4.38
2023-03-05T10:45:22.629Z,6.38
2023-03-05T10:47:56.765Z,5.88
2023-03-05T10:50:29.751Z,4.13
2023-03-05T10:53:19.550Z,5.88
2023-03-05T10:55:48.116Z,4.53
2023-03-05T10:58:18.562Z,4.70
2023-03-05T11:01:02.817Z,3.28
2023-03-05T11:03:55.197Z,5.97
2023-03-05T11:06:36.646Z,4.15
2023-03-05T11:09:28.141Z,4.57
2023-03-05T11:12:17.124Z,6.65
2023-03-05T11:14:48.968Z,5.13
2023-03-05T11:17:32.680Z,3.05
2023-03-05T11:20:40.008Z,4.95
2023-03-05T11:23:15.485Z,2.95
2023-03-05T11:25:58.345Z,4.95
2023-03-05T11:32:37.689Z,2.70
2023-03-05T11:35:33.020Z,3.67
2023-03-05T11:38:03.854Z,3.50
2023-03-05T11:40:37.487Z,3.65
2023-03-05T11:43:06.608Z,3.22
2023-03-05T11:45:35.951Z,2.00
2023-03-05T11:48:14.012Z,3.80
2023-03-05T11:50:49.800Z,4.38
2023-03-05T11:53:28.346Z,2.88
2023-03-05T11:56:06.355Z,1.65
2023-03-05T11:58:42.277Z,2.13
2023-03-05T12:01:18.369Z,1.63
2023-03-05T12:03:47.561Z,1.95
2023-03-05T12:06:29.543Z,3.30
2023-03-05T12:09:03.718Z,1.77
2023-03-05T12:11:36.873Z,1.60
2023-03-05T12:14:19.332Z,0.93
2023-03-05T12:16:53.741Z,3.88
2023-03-05T12:19:40.504Z,3.70
2023-03-05T12:22:20.158Z,1.80
2023-03-05T12:24:48.732Z,1.77
2023-03-05T12:27:37.913Z,1.77
2023-03-05T12:30:24.496Z,1.88
2023-03-05T12:32:54.741Z,1.85
2023-03-05T12:35:31.087Z,1.35
2023-03-05T12:38:26.812Z,1.38
2023-03-05T12:41:43.049Z,1.88
2023-03-05T12:44:20.721Z,0.65
2023-03-05T12:47:19.356Z,2.10
2023-03-05T12:49:49.370Z,3.58
2023-03-05T12:52:29.129Z,1.30
2023-03-05T12:55:20.206Z,1.58
2023-03-05T12:57:54.043Z,0.68
2023-03-05T13:00:33.709Z,0.45
2023-03-05T13:03:05.915Z,0.55
2023-03-05T13:05:38.858Z,0.60
2023-03-05T13:08:21.664Z,1.40
2023-03-05T13:10:56.298Z,1.92
2023-03-05T13:13:27.210Z,1.23
2023-03-05T13:15:58.362Z,3.15
2023-03-05T13:18:30.493Z,0.45
2023-03-05T13:21:05.434Z,1.98
2023-03-05T13:23:35.561Z,1.48
2023-03-05T13:26:15.234Z,3.75
2023-03-05T13:28:45.050Z,1.55
2023-03-05T13:31:18.569Z,0.70
2023-03-05T13:33:56.834Z,1.05
2023-03-05T13:36:28.274Z,0.28
2023-03-05T13:38:56.690Z,1.55
2023-03-05T13:41:28.412Z,1.10
2023-03-05T13:43:59.594Z,0.40
2023-03-05T13:46:33.772Z,1.65
2023-03-05T13:49:23.227Z,2.22
2023-03-05T13:51:54.664Z,3.53
2023-03-05T13:54:26.057Z,0.88
2023-03-05T13:56:58.689Z,1.08
2023-03-05T13:59:29.568Z,0.43
2023-03-05T14:02:01.166Z,0.77
2023-03-05T14:04:31.660Z,0.20
2023-03-05T14:07:04.223Z,0.20
2023-03-05T14:09:46.221Z,1.27
2023-03-05T14:12:30.455Z,0.73
2023-03-05T14:14:59.885Z,0.68
2023-03-05T14:17:41.855Z,2.08
2023-03-05T14:20:24.840Z,0.82
2023-03-05T14:22:57.932Z,0.20
2023-03-05T14:25:39.642Z,0.73
2023-03-05T14:28:29.218Z,2.35
2023-03-05T14:30:58.597Z,0.95
2023-03-05T14:33:32.901Z,0.63
2023-03-05T14:36:04.033Z,0.40
2023-03-05T14:38:35.423Z,0.73
2023-03-05T14:41:30.129Z,0.57
2023-03-05T14:43:58.383Z,3.22
2023-03-05T14:46:26.617Z,0.77
2023-03-05T14:48:56.132Z,0.80
2023-03-05T14:51:26.524Z,0.43
2023-03-05T14:53:55.119Z,0.28
2023-03-05T14:56:27.737Z,0.60
2023-03-05T14:58:57.574Z,0.98
2023-03-05T15:01:25.940Z,1.10
2023-03-05T15:03:55.602Z,1.13
2023-03-05T15:06:33.911Z,3.75
2023-03-05T15:09:03.968Z,1.30
2023-03-05T15:11:32.293Z,0.70
2023-03-05T15:14:00.463Z,2.20
2023-03-05T15:16:28.666Z,1.25
2023-03-05T15:18:58.327Z,0.65
2023-03-05T15:21:26.860Z,2.08
2023-03-05T15:23:54.988Z,2.28
2023-03-05T15:26:23.247Z,1.23
2023-03-05T15:28:51.433Z,1.20
2023-03-05T15:31:19.627Z,2.78
2023-03-05T15:33:47.867Z,1.33
2023-03-05T15:36:17.464Z,0.88
2023-03-05T15:38:47.414Z,1.38
2023-03-05T15:41:16.573Z,1.20
2023-03-05T15:43:44.807Z,1.50
2023-03-05T15:46:13.142Z,1.83
2023-03-05T15:48:44.133Z,1.17
2023-03-05T15:51:12.332Z,1.48
2023-03-05T15:53:42.199Z,2.50
2023-03-05T15:56:16.676Z,1.95
2023-03-05T15:58:44.788Z,1.45
2023-03-05T16:01:13.610Z,2.95
2023-03-05T16:03:41.849Z,1.63
2023-03-05T16:06:12.465Z,3.95
2023-03-05T16:08:45.035Z,2.20
2023-03-05T16:11:14.246Z,4.47
2023-03-05T16:13:43.761Z,1.63
2023-03-05T16:16:12.422Z,2.92
2023-03-05T16:18:45.855Z,4.45
2023-03-05T16:21:14.979Z,1.58
2023-03-05T16:23:44.940Z,2.67
2023-03-05T16:26:13.241Z,0.95
2023-03-05T16:28:41.331Z,1.23
2023-03-05T16:31:09.478Z,6.25
2023-03-05T16:33:37.762Z,2.00
2023-03-05T16:36:31.433Z,1.23
2023-03-05T16:39:01.378Z,0.88
2023-03-05T16:41:29.714Z,1.73
2023-03-05T16:43:58.258Z,1.17
2023-03-05T16:46:29.257Z,1.05
2023-03-05T16:48:57.960Z,1.92
2023-03-05T16:51:27.230Z,1.20
2023-03-05T16:53:56.037Z,1.80
2023-03-05T16:56:26.268Z,4.45
2023-03-05T16:58:57.227Z,1.52
2023-03-05T17:01:26.242Z,2.50
2023-03-05T17:03:54.665Z,2.60
2023-03-05T17:06:26.163Z,4.47
2023-03-05T17:08:55.428Z,1.98
2023-03-05T17:11:25.750Z,1.70
2023-03-05T17:13:54.343Z,2.38
2023-03-05T17:16:23.749Z,2.72
2023-03-05T17:18:51.996Z,3.65
2023-03-05T17:21:20.179Z,3.67
2023-03-05T17:23:48.402Z,0.73
2023-03-05T17:26:19.897Z,2.40
2023-03-05T17:28:49.587Z,2.30
2023-03-05T17:31:18.047Z,2.85
2023-03-05T17:33:46.365Z,2.97
2023-03-05T17:36:16.876Z,2.75
2023-03-05T17:38:46.394Z,2.58
2023-03-05T17:41:15.457Z,3.50
2023-03-05T17:43:44.299Z,8.20
2023-03-05T17:46:14.712Z,3.92
2023-03-05T17:48:43.024Z,2.25
2023-03-05T17:51:16.340Z,4.60
2023-03-05T17:53:46.191Z,2.85
2023-03-05T17:56:20.357Z,2.72
2023-03-05T17:58:48.857Z,1.55
2023-03-05T18:01:27.482Z,5.07
2023-03-05T18:03:56.813Z,3.53
2023-03-05T18:06:25.974Z,4.95
2023-03-05T18:08:54.368Z,5.47
2023-03-05T18:11:22.579Z,7.68
2023-03-05T18:13:50.887Z,3.47
2023-03-05T18:16:19.101Z,5.38
2023-03-05T18:18:48.699Z,4.63
2023-03-05T18:21:21.819Z,4.97
2023-03-05T18:23:51.109Z,6.53
2023-03-05T18:26:19.438Z,5.45
2023-03-05T18:28:47.587Z,3.83
2023-03-05T18:31:15.740Z,5.15
2023-03-05T18:33:44.612Z,5.53
2023-03-05T18:36:15.013Z,6.68
2023-03-05T18:38:43.278Z,5.07
2023-03-05T18:41:22.699Z,8.63
2023-03-05T18:43:53.582Z,5.22
2023-03-05T18:46:21.767Z,7.93
2023-03-05T18:48:50.356Z,7.93
2023-03-05T18:51:22.324Z,5.72
2023-03-05T18:53:51.927Z,12.73
2023-03-05T18:56:20.225Z,9.02
2023-03-05T18:58:48.540Z,8.93
2023-03-05T19:01:18.158Z,17.80
2023-03-05T19:03:46.621Z,11.95
2023-03-05T19:06:15.101Z,12.05
2023-03-05T19:08:45.255Z,18.65
2023-03-05T19:11:20.405Z,27.88
2023-03-05T19:13:50.324Z,35.15
2023-03-05T19:16:22.971Z,16.80
2023-03-05T19:19:02.964Z,71.85
2023-03-05T19:21:31.447Z,25.67
2023-03-05T19:24:00.974Z,22.08
2023-03-05T19:26:29.138Z,85.78
2023-03-05T19:28:57.309Z,15.40
2023-03-05T19:31:25.645Z,11.07
2023-03-05T19:33:55.038Z,9.95
2023-03-05T19:36:23.706Z,10.70
2023-03-05T19:38:51.992Z,10.80
2023-03-05T19:41:21.826Z,8.55
2023-03-05T19:43:50.674Z,8.10
2023-03-05T19:46:19.254Z,10.65
2023-03-05T19:48:47.658Z,11.50
2023-03-05T19:51:19.103Z,14.30
2023-03-05T19:53:48.092Z,9.68
2023-03-05T19:56:17.804Z,9.07
2023-03-05T19:58:49.100Z,8.02
2023-03-05T20:01:20.621Z,8.43
2023-03-05T20:03:51.364Z,8.98
2023-03-05T20:06:20.506Z,7.00
2023-03-05T20:08:49.274Z,5.28
2023-03-05T20:11:19.241Z,6.82
2023-03-05T20:13:52.155Z,5.57
2023-03-05T20:16:26.211Z,5.38
2023-03-05T20:18:55.811Z,7.82
2023-03-05T20:21:27.022Z,6.93
2023-03-05T20:23:58.528Z,6.53
2023-03-05T20:26:28.044Z,7.45
2023-03-05T20:28:58.675Z,9.38
2023-03-05T20:31:29.285Z,8.48
2023-03-05T20:33:57.938Z,9.20
2023-03-05T20:36:26.292Z,10.20
2023-03-05T20:38:55.069Z,9.93
2023-03-05T20:41:23.698Z,11.27
2023-03-05T20:43:53.355Z,11.95
2023-03-05T20:46:25.386Z,17.05
2023-03-05T20:48:56.563Z,9.77
2023-03-05T20:51:27.171Z,16.77
2023-03-05T20:53:58.506Z,11.55
2023-03-05T20:56:27.980Z,10.48
2023-03-05T20:58:58.224Z,13.35
2023-03-05T21:01:29.063Z,14.02
2023-03-05T21:03:58.036Z,14.70
2023-03-05T21:06:27.664Z,16.25
2023-03-05T21:08:56.595Z,20.30
2023-03-05T21:11:26.279Z,20.10
2023-03-05T21:13:55.654Z,15.40
2023-03-05T21:16:28.582Z,17.00
2023-03-05T21:18:57.973Z,14.30
2023-03-05T21:21:26.641Z,13.32
2023-03-05T21:23:55.420Z,14.48
2023-03-05T21:26:23.583Z,14.95
2023-03-05T21:28:51.874Z,15.82
2023-03-05T21:31:23.700Z,13.57
2023-03-05T21:33:53.391Z,12.55
2023-03-05T21:36:21.985Z,8.48
2023-03-05T21:38:50.925Z,10.85
2023-03-05T21:41:20.536Z,10.90
2023-03-05T21:43:48.698Z,11.18
2023-03-05T21:46:17.360Z,16.60
2023-03-05T21:48:45.547Z,9.57
2023-03-05T21:51:16.828Z,10.15
2023-03-05T21:53:44.969Z,18.50
2023-03-05T21:56:22.329Z,14.25
2023-03-05T21:58:51.078Z,11.52
2023-03-05T22:01:21.185Z,14.20
2023-03-05T22:03:51.141Z,11.02
2023-03-05T22:06:21.674Z,12.25
2023-03-05T22:08:50.383Z,12.10
2023-03-05T22:11:20.828Z,10.23
2023-03-05T22:13:49.148Z,9.52
2023-03-05T22:16:25.785Z,11.48
2023-03-05T22:18:54.519Z,12.95
2023-03-05T22:21:27.546Z,12.05
2023-03-05T22:23:57.423Z,10.75
2023-03-05T22:26:26.977Z,9.23
2023-03-05T22:28:55.126Z,12.95
2023-03-05T22:31:25.601Z,14.13
2023-03-05T22:33:54.607Z,10.82
2023-03-05T22:36:24.639Z,12.52
2023-03-05T22:38:53.432Z,11.70
2023-03-05T22:41:22.738Z,11.48
2023-03-05T22:43:51.784Z,12.98
2023-03-05T22:46:23.559Z,13.15
2023-03-05T22:48:53.335Z,13.73
2023-03-05T22:51:23.386Z,14.63
2023-03-05T22:53:54.552Z,14.55
2023-03-05T22:56:23.144Z,14.18
2023-03-05T22:58:52.949Z,16.15
2023-03-05T23:01:24.578Z,14.73
2023-03-05T23:03:58.748Z,13.95
2023-03-05T23:06:28.579Z,12.50
2023-03-05T23:08:57.062Z,11.80
2023-03-05T23:11:25.382Z,15.90
2023-03-05T23:13:53.545Z,18.42
2023-03-05T23:16:21.770Z,11.18
2023-03-05T23:18:49.971Z,14.73
2023-03-05T23:21:18.274Z,14.68
2023-03-05T23:23:48.244Z,14.18
2023-03-05T23:26:16.370Z,16.20
2023-03-05T23:28:44.475Z,17.45
2023-03-05T23:31:12.604Z,15.30
2023-03-05T23:33:41.186Z,13.90
2023-03-05T23:36:09.783Z,13.77
2023-03-05T23:38:38.077Z,15.93
2023-03-05T23:41:10.441Z,20.10
2023-03-05T23:43:38.585Z,14.57
2023-03-05T23:46:12.425Z,11.82
2023-03-05T23:48:41.336Z,16.75
2023-03-05T23:51:10.710Z,13.52
2023-03-05T23:53:39.221Z,15.23
2023-03-05T23:56:12.890Z,12.68
2023-03-05T23:58:42.702Z,17.08
